Time;durP1;ratioP1;P1;durP2;ratioP2;P2;SDS_P1;SDS_P2;PMS_P1;PMS_P2;Temp;Humidity;BMP_temperature;BMP_pressure;BME280_temperature;BME280_humidity;BME280_pressure;Samples;Min_cycle;Max_cycle;Signal;HPM_P1;HPM_P2
2021/06/20 00:01:03;;;;;;;11.60;8.77;;;19.30;99.90;;;;;;5033205;28;20398;-72
2021/06/20 00:03:29;;;;;;;9.48;8.57;;;19.30;99.90;;;;;;5032623;28;20026;-73
2021/06/20 00:05:59;;;;;;;12.95;9.23;;;19.30;99.90;;;;;;5038557;28;20034;-72
2021/06/20 00:08:25;;;;;;;9.68;8.07;;;19.20;99.90;;;;;;5039786;28;20534;-72
2021/06/20 00:10:52;;;;;;;13.25;8.73;;;19.20;99.90;;;;;;5051025;28;20013;-72
2021/06/20 00:13:19;;;;;;;13.32;8.98;;;19.10;99.90;;;;;;5050358;28;20397;-72
2021/06/20 00:15:47;;;;;;;11.95;8.52;;;19.10;99.90;;;;;;5050511;28;20025;-72
2021/06/20 00:18:13;;;;;;;11.55;9.35;;;19.00;99.90;;;;;;5050149;28;20017;-72
2021/06/20 00:20:42;;;;;;;12.07;8.88;;;19.00;99.90;;;;;;5046334;28;20411;-72
2021/06/20 00:23:08;;;;;;;12.77;9.80;;;18.90;99.90;;;;;;5051696;28;20048;-72
2021/06/20 00:25:34;;;;;;;11.98;9.93;;;18.90;99.90;;;;;;5052341;28;20037;-72
2021/06/20 00:28:01;;;;;;;11.15;9.73;;;18.90;99.90;;;;;;5053387;28;20017;-73
2021/06/20 00:30:29;;;;;;;12.82;8.98;;;18.90;99.90;;;;;;5054065;28;20467;-72
2021/06/20 00:32:55;;;;;;;10.50;9.43;;;18.80;99.90;;;;;;5054081;28;20068;-72
2021/06/20 00:35:21;;;;;;;13.02;9.93;;;18.80;99.90;;;;;;5053703;28;20040;-72
2021/06/20 00:37:48;;;;;;;12.65;10.13;;;18.70;99.90;;;;;;5053983;28;20029;-72
2021/06/20 00:40:16;;;;;;;11.75;9.73;;;18.70;99.90;;;;;;5053582;28;20032;-72
2021/06/20 00:42:42;;;;;;;10.82;9.48;;;18.60;99.90;;;;;;5053875;28;20092;-72
2021/06/20 00:45:09;;;;;;;11.50;9.82;;;18.60;99.90;;;;;;5053581;28;20040;-72
2021/06/20 00:47:35;;;;;;;11.98;9.40;;;18.60;99.90;;;;;;5053790;28;20497;-72
2021/06/20 00:50:00;;;;;;;9.75;8.57;;;18.50;99.90;;;;;;5052071;28;20025;-72
2021/06/20 00:52:26;;;;;;;10.93;9.80;;;18.50;99.90;;;;;;5053696;28;20091;-73
2021/06/20 00:54:52;;;;;;;11.85;9.82;;;18.50;99.90;;;;;;5052203;28;20031;-72
2021/06/20 00:57:21;;;;;;;11.43;9.82;;;18.50;99.90;;;;;;5053176;28;20029;-72
2021/06/20 00:59:50;;;;;;;13.55;9.65;;;18.40;99.90;;;;;;5052195;28;20536;-72
2021/06/20 01:02:18;;;;;;;12.52;9.43;;;18.50;99.90;;;;;;5052149;28;20398;-73
2021/06/20 01:04:46;;;;;;;13.43;10.32;;;18.40;99.90;;;;;;5050688;28;20016;-72
2021/06/20 01:07:20;;;;;;;13.85;10.43;;;18.30;99.90;;;;;;5033357;28;20026;-72
2021/06/20 01:09:47;;;;;;;14.60;10.57;;;18.30;99.90;;;;;;5032018;28;20121;-72
2021/06/20 01:12:14;;;;;;;12.82;10.15;;;18.30;99.90;;;;;;5033362;28;20032;-72
2021/06/20 01:14:41;;;;;;;12.98;10.60;;;18.20;99.90;;;;;;5033367;28;20021;-72
2021/06/20 01:17:08;;;;;;;13.95;11.68;;;18.20;99.90;;;;;;5032005;28;20060;-73
2021/06/20 01:19:35;;;;;;;17.50;10.30;;;18.10;99.90;;;;;;5034306;28;20519;-72
2021/06/20 01:22:15;;;;;;;13.68;10.70;;;18.10;99.90;;;;;;5053040;28;20052;-72
2021/06/20 01:24:41;;;;;;;11.85;10.02;;;18.10;99.90;;;;;;5052807;28;20100;-72
2021/06/20 01:27:07;;;;;;;12.73;11.05;;;18.00;99.90;;;;;;5051784;28;20055;-72
2021/06/20 01:29:34;;;;;;;10.93;9.82;;;17.90;99.90;;;;;;5053029;28;20635;-72
2021/06/20 01:32:00;;;;;;;13.55;10.30;;;17.90;99.90;;;;;;5052713;28;20384;-72
2021/06/20 01:34:26;;;;;;;13.52;10.95;;;17.80;99.90;;;;;;5051307;28;20017;-72
2021/06/20 01:36:52;;;;;;;12.68;10.48;;;17.70;99.90;;;;;;5051714;28;20186;-72
2021/06/20 01:39:18;;;;;;;11.90;9.77;;;17.70;99.90;;;;;;5042280;28;20025;-72
2021/06/20 01:41:44;;;;;;;15.27;10.88;;;17.70;99.90;;;;;;5031722;28;20491;-73
2021/06/20 01:44:09;;;;;;;11.07;9.93;;;17.60;99.90;;;;;;5032827;28;20086;-72
2021/06/20 01:46:35;;;;;;;10.27;9.25;;;17.70;99.90;;;;;;5032857;28;20162;-72
2021/06/20 01:49:00;;;;;;;14.48;10.05;;;17.70;99.90;;;;;;5051961;28;20575;-72
2021/06/20 01:51:26;;;;;;;10.75;9.60;;;17.70;99.90;;;;;;5052759;28;20021;-72
2021/06/20 01:53:52;;;;;;;12.55;9.90;;;17.70;99.90;;;;;;5052821;28;20079;-73
2021/06/20 01:56:17;;;;;;;12.68;9.38;;;17.70;99.90;;;;;;5052071;28;20017;-72
2021/06/20 01:58:43;;;;;;;11.40;9.63;;;17.70;99.90;;;;;;5052822;28;20040;-73
2021/06/20 02:01:09;;;;;;;11.13;10.02;;;17.70;99.90;;;;;;5052473;28;20037;-72
2021/06/20 02:03:34;;;;;;;9.38;8.38;;;17.70;99.90;;;;;;5052854;28;20475;-72
2021/06/20 02:06:01;;;;;;;12.05;10.40;;;17.70;99.90;;;;;;5051023;28;20052;-72
2021/06/20 02:08:27;;;;;;;13.10;10.25;;;17.70;99.90;;;;;;5052816;28;20474;-73
2021/06/20 02:10:55;;;;;;;10.98;9.82;;;17.60;99.90;;;;;;5040025;28;20061;-72
2021/06/20 02:13:24;;;;;;;13.68;10.18;;;17.60;99.90;;;;;;5036726;28;20053;-72
2021/06/20 02:15:53;;;;;;;12.40;9.90;;;17.50;99.90;;;;;;5036696;28;20029;-72
2021/06/20 02:18:18;;;;;;;13.10;10.00;;;17.50;99.90;;;;;;5036594;28;20017;-72
2021/06/20 02:20:44;;;;;;;10.98;9.77;;;17.50;99.90;;;;;;5035265;28;20045;-72
2021/06/20 02:23:10;;;;;;;12.73;9.32;;;17.40;99.90;;;;;;5035191;28;20103;-73
2021/06/20 02:25:36;;;;;;;11.45;9.07;;;17.40;99.90;;;;;;5036483;28;20028;-72
2021/06/20 02:28:02;;;;;;;13.45;9.52;;;17.40;99.90;;;;;;5035098;28;20407;-72
2021/06/20 02:30:28;;;;;;;10.38;9.30;;;17.40;99.90;;;;;;5036392;28;20029;-72
2021/06/20 02:32:54;;;;;;;13.00;9.90;;;17.40;99.90;;;;;;5036470;28;20467;-73
2021/06/20 02:35:21;;;;;;;11.75;9.63;;;17.50;99.90;;;;;;5036416;28;20152;-72
2021/06/20 02:37:48;;;;;;;11.63;9.73;;;17.40;99.90;;;;;;5035131;28;20025;-72
2021/06/20 02:40:15;;;;;;;11.32;9.55;;;17.40;99.90;;;;;;5054158;28;20029;-72
2021/06/20 02:42:41;;;;;;;13.75;9.77;;;17.40;99.90;;;;;;5054937;28;20033;-72
2021/06/20 02:45:09;;;;;;;12.57;10.75;;;17.40;99.90;;;;;;5056093;28;20367;-72
2021/06/20 02:47:35;;;;;;;13.77;10.90;;;17.40;99.90;;;;;;5056150;28;20024;-72
2021/06/20 02:50:02;;;;;;;13.02;10.88;;;17.40;99.90;;;;;;5054409;28;20033;-72
2021/06/20 02:52:27;;;;;;;13.07;10.35;;;17.40;99.90;;;;;;5054765;28;20518;-72
2021/06/20 02:54:53;;;;;;;15.00;10.60;;;17.40;99.90;;;;;;5056180;28;20108;-72
2021/06/20 02:57:24;;;;;;;11.98;10.30;;;17.40;99.90;;;;;;5054379;28;20025;-72
2021/06/20 02:59:53;;;;;;;14.25;11.25;;;17.40;99.90;;;;;;5055588;28;20025;-72
2021/06/20 03:02:20;;;;;;;12.07;9.77;;;17.40;99.90;;;;;;5055150;28;20029;-72
2021/06/20 03:04:47;;;;;;;15.13;9.60;;;17.50;99.90;;;;;;5055653;28;20052;-72
2021/06/20 03:07:13;;;;;;;11.60;9.50;;;17.50;99.90;;;;;;5054263;28;20063;-73
2021/06/20 03:09:39;;;;;;;11.05;9.13;;;17.50;99.90;;;;;;5053889;28;20559;-72
2021/06/20 03:12:07;;;;;;;12.30;9.18;;;17.60;99.90;;;;;;5054259;28;20116;-72
2021/06/20 03:14:34;;;;;;;11.35;9.75;;;17.50;99.90;;;;;;5054237;28;20539;-72
2021/06/20 03:17:02;;;;;;;11.60;10.13;;;17.50;99.90;;;;;;5055502;28;20021;-72
2021/06/20 03:19:27;;;;;;;10.90;9.77;;;17.50;99.90;;;;;;5055202;28;20025;-72
2021/06/20 03:21:59;;;;;;;12.38;9.15;;;17.50;99.90;;;;;;5055220;28;20064;-73
2021/06/20 03:24:25;;;;;;;10.88;9.10;;;17.60;99.90;;;;;;5054155;28;20028;-72
2021/06/20 03:26:51;;;;;;;13.75;10.82;;;17.70;99.90;;;;;;5055390;28;20051;-73
2021/06/20 03:29:17;;;;;;;14.75;9.27;;;17.70;99.90;;;;;;5045386;28;20026;-72
2021/06/20 03:31:43;;;;;;;14.40;9.90;;;18.00;99.90;;;;;;5034565;28;20497;-72
2021/06/20 03:34:08;;;;;;;11.45;9.75;;;18.10;99.90;;;;;;5038188;28;20036;-72
2021/06/20 03:36:34;;;;;;;13.48;9.60;;;18.30;99.90;;;;;;5039595;28;20112;-72
2021/06/20 03:39:00;;;;;;;12.38;9.02;;;18.50;99.90;;;;;;5045624;28;20048;-72
2021/06/20 03:41:25;;;;;;;12.20;9.23;;;18.60;99.90;;;;;;5053696;28;20509;-73
2021/06/20 03:43:51;;;;;;;11.65;9.52;;;18.80;99.90;;;;;;5055151;28;20025;-73
2021/06/20 03:46:18;;;;;;;13.15;9.15;;;18.90;99.90;;;;;;5053422;28;20029;-73
2021/06/20 03:48:44;;;;;;;11.18;9.35;;;19.00;99.90;;;;;;5054966;28;20029;-73
2021/06/20 03:51:10;;;;;;;9.35;8.35;;;19.10;99.90;;;;;;5053084;28;20025;-72
2021/06/20 03:53:35;;;;;;;11.27;10.15;;;19.10;99.90;;;;;;5053614;28;20383;-73
2021/06/20 03:56:02;;;;;;;12.32;9.70;;;19.20;99.90;;;;;;5054647;28;20032;-72
2021/06/20 03:58:28;;;;;;;10.05;9.05;;;19.20;99.90;;;;;;5054360;28;20056;-73
2021/06/20 04:00:53;;;;;;;9.68;7.82;;;19.30;99.90;;;;;;5054653;28;20065;-72
2021/06/20 04:03:19;;;;;;;9.05;8.15;;;19.40;99.90;;;;;;5054460;28;20538;-73
2021/06/20 04:05:45;;;;;;;9.85;8.82;;;19.40;99.90;;;;;;5053795;28;20036;-72
2021/06/20 04:08:10;;;;;;;12.50;8.25;;;19.50;99.90;;;;;;5048446;28;20100;-72
2021/06/20 04:10:36;;;;;;;10.45;7.50;;;19.50;99.90;;;;;;5033266;28;20060;-73
2021/06/20 04:13:02;;;;;;;12.43;9.15;;;19.60;99.90;;;;;;5034536;28;20104;-73
2021/06/20 04:15:28;;;;;;;11.00;8.73;;;19.60;99.90;;;;;;5034471;28;20025;-72
2021/06/20 04:17:54;;;;;;;9.70;8.00;;;19.70;99.90;;;;;;5034532;28;20025;-73
2021/06/20 04:20:20;;;;;;;9.95;8.50;;;19.80;99.90;;;;;;5034077;28;20077;-72
2021/06/20 04:22:46;;;;;;;9.88;8.40;;;19.80;99.90;;;;;;5034452;28;20033;-72
2021/06/20 04:25:15;;;;;;;9.68;7.30;;;20.00;99.90;;;;;;5033549;28;20026;-72
2021/06/20 04:27:46;;;;;;;8.85;7.55;;;20.10;99.90;;;;;;5034284;28;20017;-72
2021/06/20 04:30:14;;;;;;;12.75;8.43;;;20.30;99.90;;;;;;5032648;28;20029;-72
2021/06/20 04:32:42;;;;;;;9.43;8.43;;;20.20;99.90;;;;;;5033591;28;20013;-72
2021/06/20 04:35:10;;;;;;;9.02;7.75;;;20.30;99.90;;;;;;5034337;28;20495;-72
2021/06/20 04:37:35;;;;;;;9.13;8.23;;;20.40;99.70;;;;;;5034073;28;20498;-72
2021/06/20 04:40:03;;;;;;;10.18;7.43;;;20.50;98.50;;;;;;5051772;28;20033;-72
2021/06/20 04:42:39;;;;;;;10.13;8.20;;;20.60;98.90;;;;;;5053924;28;20031;-73
2021/06/20 04:45:07;;;;;;;8.35;7.57;;;20.60;99.90;;;;;;5052527;28;20438;-72
2021/06/20 04:47:33;;;;;;;12.00;8.10;;;20.60;99.70;;;;;;5053842;28;20381;-73
2021/06/20 04:49:59;;;;;;;8.05;7.22;;;20.60;99.90;;;;;;5053269;28;20489;-73
2021/06/20 04:52:25;;;;;;;7.88;7.07;;;20.70;99.90;;;;;;5054002;28;20036;-73
2021/06/20 04:54:52;;;;;;;14.77;8.05;;;20.80;96.60;;;;;;5053520;28;20096;-72
2021/06/20 04:57:29;;;;;;;7.57;6.75;;;20.90;98.40;;;;;;5052285;28;20071;-72
2021/06/20 04:59:57;;;;;;;8.20;6.82;;;20.90;96.30;;;;;;5052072;28;20018;-72
2021/06/20 05:02:23;;;;;;;8.30;6.22;;;20.80;97.40;;;;;;5052230;28;20020;-72
2021/06/20 05:04:50;;;;;;;9.95;6.53;;;20.90;95.70;;;;;;5053080;28;20474;-72
2021/06/20 05:07:16;;;;;;;12.50;7.68;;;21.00;97.80;;;;;;5053180;28;20486;-73
2021/06/20 05:09:42;;;;;;;8.20;6.78;;;20.90;95.30;;;;;;5053163;28;20064;-72
2021/06/20 05:12:09;;;;;;;8.23;6.10;;;20.90;96.10;;;;;;5053281;28;20470;-72
2021/06/20 05:14:36;;;;;;;8.00;7.20;;;21.10;95.40;;;;;;5053262;28;20029;-73
2021/06/20 05:17:02;;;;;;;8.13;6.40;;;21.10;92.90;;;;;;5051991;28;20033;-72
2021/06/20 05:19:27;;;;;;;9.40;6.30;;;21.20;92.60;;;;;;5053098;28;20475;-72
2021/06/20 05:21:53;;;;;;;6.43;5.82;;;21.30;91.90;;;;;;5047970;28;20487;-72
2021/06/20 05:24:19;;;;;;;5.95;5.32;;;21.30;91.70;;;;;;5031844;28;20087;-73
2021/06/20 05:26:45;;;;;;;6.75;5.55;;;21.40;90.60;;;;;;5033266;28;20026;-73
2021/06/20 05:29:10;;;;;;;7.82;6.05;;;21.40;90.70;;;;;;5033094;28;20024;-72
2021/06/20 05:31:36;;;;;;;7.40;5.90;;;21.50;90.50;;;;;;5033235;28;20022;-73
2021/06/20 05:34:02;;;;;;;6.75;5.75;;;21.60;89.10;;;;;;5033019;28;20455;-73
2021/06/20 05:36:28;;;;;;;6.15;5.45;;;21.70;87.20;;;;;;5048367;28;20372;-74
2021/06/20 05:38:53;;;;;;;6.50;5.38;;;21.70;85.10;;;;;;5052657;28;20026;-72
2021/06/20 05:41:19;;;;;;;7.32;5.82;;;21.70;84.90;;;;;;5052821;28;20037;-73
2021/06/20 05:43:45;;;;;;;6.65;5.72;;;21.70;82.90;;;;;;5051692;28;20021;-73
2021/06/20 05:46:10;;;;;;;8.20;5.43;;;21.80;82.50;;;;;;5052682;28;20040;-73
2021/06/20 05:48:36;;;;;;;5.95;5.35;;;21.90;83.10;;;;;;5052939;28;20386;-73
2021/06/20 05:51:02;;;;;;;6.20;5.63;;;21.80;81.10;;;;;;5052290;28;20467;-73
2021/06/20 05:53:28;;;;;;;5.38;4.50;;;21.90;82.10;;;;;;5039132;28;20026;-73
2021/06/20 05:55:53;;;;;;;8.73;5.78;;;22.00;82.80;;;;;;5032894;28;20600;-73
2021/06/20 05:58:19;;;;;;;8.55;5.40;;;22.10;83.20;;;;;;5032813;28;20025;-73
2021/06/20 06:00:45;;;;;;;5.90;5.10;;;22.20;81.20;;;;;;5031391;28;20044;-72
2021/06/20 06:03:10;;;;;;;6.15;4.78;;;22.30;80.20;;;;;;5031386;28;20025;-73
2021/06/20 06:05:36;;;;;;;7.38;5.35;;;22.30;78.70;;;;;;5033857;28;20040;-73
2021/06/20 06:08:02;;;;;;;5.53;4.70;;;22.40;77.30;;;;;;5032769;28;20021;-73
2021/06/20 06:10:29;;;;;;;4.78;4.38;;;22.50;77.30;;;;;;5032659;28;20120;-73
2021/06/20 06:12:56;;;;;;;5.50;5.00;;;22.50;76.20;;;;;;5032698;28;20476;-73
2021/06/20 06:15:23;;;;;;;5.38;4.95;;;22.70;77.50;;;;;;5032645;28;20532;-72
2021/06/20 06:17:49;;;;;;;5.78;4.90;;;22.70;75.60;;;;;;5032837;28;20021;-72
2021/06/20 06:20:15;;;;;;;5.88;4.90;;;22.80;76.80;;;;;;5032444;28;20446;-73
2021/06/20 06:22:41;;;;;;;5.80;4.82;;;22.90;76.30;;;;;;5032220;28;20053;-73
2021/06/20 06:25:08;;;;;;;6.47;5.00;;;22.90;76.30;;;;;;5032490;28;20076;-72
2021/06/20 06:27:33;;;;;;;7.07;4.97;;;22.80;76.00;;;;;;5033734;28;20029;-73
2021/06/20 06:29:59;;;;;;;5.53;4.68;;;22.80;75.00;;;;;;5032419;28;20025;-73
2021/06/20 06:32:25;;;;;;;7.28;4.93;;;22.90;73.30;;;;;;5031314;28;20018;-73
2021/06/20 06:34:50;;;;;;;4.57;4.18;;;23.10;73.40;;;;;;5032766;28;20031;-73
2021/06/20 06:37:16;;;;;;;4.88;4.47;;;23.30;72.10;;;;;;5039590;28;20021;-73
2021/06/20 06:39:42;;;;;;;4.97;4.47;;;23.50;70.60;;;;;;5050742;28;20033;-73
2021/06/20 06:42:08;;;;;;;4.93;4.50;;;23.70;70.90;;;;;;5052166;28;20078;-73
2021/06/20 06:44:34;;;;;;;6.80;5.13;;;23.70;70.20;;;;;;5050991;28;20107;-73
2021/06/20 06:47:00;;;;;;;4.97;4.45;;;23.80;71.50;;;;;;5052322;28;20174;-73
2021/06/20 06:49:25;;;;;;;4.45;3.95;;;24.00;69.60;;;;;;5052046;28;20032;-73
2021/06/20 06:51:51;;;;;;;4.13;3.70;;;24.00;63.10;;;;;;5051778;28;20025;-73
2021/06/20 06:54:17;;;;;;;4.55;4.15;;;24.10;63.60;;;;;;5051207;28;20053;-72
2021/06/20 06:56:45;;;;;;;4.30;3.70;;;24.20;64.50;;;;;;5055951;28;20449;-73
2021/06/20 06:59:11;;;;;;;5.65;3.47;;;24.40;63.90;;;;;;5054414;28;20029;-73
2021/06/20 07:01:36;;;;;;;3.60;3.30;;;24.50;62.70;;;;;;5055825;28;20036;-72
2021/06/20 07:04:02;;;;;;;5.30;4.10;;;24.60;62.70;;;;;;5055761;28;20097;-73
2021/06/20 07:06:28;;;;;;;4.35;3.42;;;24.70;61.10;;;;;;5045831;28;20054;-73
2021/06/20 07:08:54;;;;;;;4.05;3.63;;;24.80;60.50;;;;;;5035621;28;20037;-72
2021/06/20 07:11:21;;;;;;;5.00;4.05;;;25.00;60.70;;;;;;5047116;28;20036;-72
2021/06/20 07:13:47;;;;;;;5.72;3.80;;;25.20;60.60;;;;;;5055596;28;20052;-73
2021/06/20 07:16:13;;;;;;;3.90;3.50;;;25.30;59.80;;;;;;5054936;28;20025;-73
2021/06/20 07:18:38;;;;;;;4.93;3.40;;;25.30;58.80;;;;;;5055129;28;20036;-73
2021/06/20 07:21:04;;;;;;;3.85;3.55;;;25.30;58.90;;;;;;5053982;28;20033;-73
2021/06/20 07:23:30;;;;;;;5.13;3.92;;;25.20;59.90;;;;;;5053885;28;20048;-73
2021/06/20 07:25:55;;;;;;;3.53;3.22;;;25.20;62.10;;;;;;5055313;28;20020;-73
2021/06/20 07:28:21;;;;;;;3.88;3.33;;;25.20;60.60;;;;;;5055266;28;20478;-73
2021/06/20 07:30:50;;;;;;;3.88;3.33;;;25.10;61.10;;;;;;5055328;28;20029;-72
2021/06/20 07:33:17;;;;;;;3.95;3.65;;;25.00;61.60;;;;;;5053881;28;20039;-72
2021/06/20 07:35:46;;;;;;;5.80;4.03;;;25.20;61.30;;;;;;5047626;28;20032;-72
2021/06/20 07:38:12;;;;;;;4.28;3.72;;;25.30;60.90;;;;;;5035113;28;20467;-73
2021/06/20 07:40:38;;;;;;;4.22;3.83;;;25.30;61.20;;;;;;5047463;28;20091;-73
2021/06/20 07:43:03;;;;;;;3.78;3.28;;;25.30;61.20;;;;;;5054797;28;20021;-73
2021/06/20 07:45:29;;;;;;;4.03;3.63;;;25.40;60.20;;;;;;5055274;28;20056;-73
2021/06/20 07:47:55;;;;;;;8.23;3.95;;;25.50;59.80;;;;;;5054996;28;20434;-73
2021/06/20 07:50:21;;;;;;;3.78;3.33;;;25.60;59.70;;;;;;5053269;28;20044;-73
2021/06/20 07:52:46;;;;;;;4.60;3.50;;;25.70;58.60;;;;;;5053669;28;20410;-73
2021/06/20 07:55:13;;;;;;;3.80;3.35;;;25.90;58.80;;;;;;5054266;28;20029;-73
2021/06/20 07:57:39;;;;;;;3.97;3.40;;;26.10;59.40;;;;;;5054549;28;20017;-73
2021/06/20 08:00:08;;;;;;;3.75;2.85;;;26.10;58.20;;;;;;5054542;28;20029;-72
2021/06/20 08:02:34;;;;;;;4.18;3.72;;;26.20;57.80;;;;;;5053440;28;20028;-72
2021/06/20 08:05:00;;;;;;;4.78;3.95;;;26.20;58.10;;;;;;5053210;28;20079;-73
2021/06/20 08:07:26;;;;;;;4.25;3.50;;;26.20;58.90;;;;;;5033642;28;20025;-73
2021/06/20 08:09:51;;;;;;;4.25;3.70;;;26.30;58.10;;;;;;5040122;28;20028;-73
2021/06/20 08:12:17;;;;;;;4.05;3.65;;;26.40;57.30;;;;;;5042469;28;20167;-74
2021/06/20 08:14:43;;;;;;;4.43;4.03;;;26.20;57.10;;;;;;5033450;28;20111;-73
2021/06/20 08:17:10;;;;;;;4.43;4.03;;;26.30;57.30;;;;;;5033352;28;20033;-73
2021/06/20 08:19:36;;;;;;;6.32;3.45;;;26.20;58.20;;;;;;5034452;28;20017;-73
2021/06/20 08:22:01;;;;;;;4.25;3.92;;;26.20;59.20;;;;;;5034282;28;20055;-73
2021/06/20 08:24:27;;;;;;;6.30;4.40;;;26.20;59.60;;;;;;5037967;28;20020;-73
2021/06/20 08:26:53;;;;;;;4.53;4.10;;;26.20;60.10;;;;;;5052410;28;20045;-73
2021/06/20 08:29:18;;;;;;;5.18;4.68;;;26.20;59.00;;;;;;5041471;28;20031;-73
2021/06/20 08:31:44;;;;;;;4.00;3.47;;;26.50;59.70;;;;;;5042911;28;20033;-73
2021/06/20 08:34:10;;;;;;;4.55;4.15;;;26.60;57.50;;;;;;5040735;28;20021;-72
2021/06/20 08:36:37;;;;;;;4.45;4.05;;;26.70;57.20;;;;;;5045308;28;20027;-73
2021/06/20 08:39:05;;;;;;;4.28;3.78;;;26.50;56.50;;;;;;5045025;28;20021;-73
2021/06/20 08:41:33;;;;;;;4.85;4.07;;;26.70;58.10;;;;;;5040980;28;20099;-73
2021/06/20 08:43:59;;;;;;;4.28;3.88;;;26.80;56.60;;;;;;5044183;28;20090;-72
2021/06/20 08:46:25;;;;;;;4.10;3.80;;;26.70;56.80;;;;;;5041187;28;20032;-73
2021/06/20 08:48:54;;;;;;;5.70;3.90;;;26.70;56.30;;;;;;5042028;28;20029;-73
2021/06/20 08:51:20;;;;;;;3.70;3.40;;;26.70;57.80;;;;;;5043191;28;20052;-73
2021/06/20 08:53:45;;;;;;;4.45;4.03;;;26.60;55.30;;;;;;5038223;28;20064;-73
2021/06/20 08:56:11;;;;;;;4.10;3.80;;;26.70;55.80;;;;;;5042882;28;20453;-72
2021/06/20 08:58:36;;;;;;;4.07;3.78;;;26.90;55.30;;;;;;5042643;28;20021;-74
2021/06/20 09:01:05;;;;;;;4.38;3.58;;;27.00;55.50;;;;;;5044668;28;20048;-73
2021/06/20 09:03:44;;;;;;;4.05;3.70;;;27.30;55.00;;;;;;5043907;28;20013;-73
2021/06/20 09:06:16;;;;;;;5.90;4.10;;;27.40;53.40;;;;;;5033133;28;20013;-72
2021/06/20 09:08:49;;;;;;;4.25;3.85;;;27.50;52.50;;;;;;5031525;28;20032;-73
2021/06/20 09:11:36;;;;;;;4.80;3.67;;;27.50;53.50;;;;;;5038948;28;20179;-73
2021/06/20 09:14:14;;;;;;;3.95;3.65;;;27.60;52.50;;;;;;5046950;28;20100;-72
2021/06/20 09:16:49;;;;;;;4.45;4.00;;;27.60;51.50;;;;;;5041628;28;20033;-73
2021/06/20 09:19:16;;;;;;;4.53;3.95;;;27.60;52.80;;;;;;5049410;28;20029;-73
2021/06/20 09:21:55;;;;;;;4.07;3.28;;;27.90;52.70;;;;;;5051795;28;20033;-72
2021/06/20 09:24:21;;;;;;;4.15;3.78;;;27.60;51.50;;;;;;5052130;28;20470;-73
2021/06/20 09:26:55;;;;;;;4.22;3.83;;;27.60;51.60;;;;;;5051438;28;20023;-73
2021/06/20 09:29:38;;;;;;;4.03;3.72;;;27.60;52.80;;;;;;5052674;28;20501;-73
2021/06/20 09:32:07;;;;;;;3.88;3.58;;;27.70;52.10;;;;;;5053082;28;20414;-73
2021/06/20 09:34:44;;;;;;;4.05;3.75;;;27.80;51.20;;;;;;5051821;28;20025;-72
2021/06/20 09:37:10;;;;;;;4.85;4.45;;;28.00;51.60;;;;;;5051151;28;20033;-73
2021/06/20 09:39:36;;;;;;;4.03;3.55;;;28.00;50.60;;;;;;5050827;28;20040;-73
2021/06/20 09:42:10;;;;;;;3.50;3.30;;;28.20;50.70;;;;;;5048580;28;20083;-73
2021/06/20 09:44:53;;;;;;;3.70;3.40;;;28.30;49.00;;;;;;5052867;28;20040;-73
2021/06/20 09:47:23;;;;;;;4.85;3.72;;;28.40;49.50;;;;;;5052853;28;20108;-73
2021/06/20 09:49:51;;;;;;;3.83;3.50;;;28.50;48.60;;;;;;5052908;28;20021;-72
2021/06/20 09:52:34;;;;;;;4.65;3.75;;;28.40;49.60;;;;;;5052483;28;20036;-73
2021/06/20 09:55:09;;;;;;;4.40;3.67;;;28.30;50.00;;;;;;5051479;28;20501;-72
2021/06/20 09:57:42;;;;;;;4.20;3.85;;;28.10;50.70;;;;;;5052833;28;20096;-73
2021/06/20 10:00:11;;;;;;;3.92;3.63;;;27.90;50.00;;;;;;5030710;28;20120;-72
2021/06/20 10:02:39;;;;;;;4.18;3.72;;;27.80;49.80;;;;;;5031895;28;20030;-72
2021/06/20 10:05:09;;;;;;;4.45;3.53;;;27.90;50.60;;;;;;5031993;28;20028;-72
2021/06/20 10:07:35;;;;;;;4.47;4.07;;;27.90;50.30;;;;;;5032508;28;20081;-72
2021/06/20 10:10:03;;;;;;;4.10;3.80;;;28.00;50.60;;;;;;5033645;28;20037;-72
2021/06/20 10:12:29;;;;;;;4.05;3.38;;;28.20;50.80;;;;;;5051437;28;20033;-73
2021/06/20 10:14:56;;;;;;;3.90;3.60;;;28.30;49.60;;;;;;5049141;28;20025;-72
2021/06/20 10:17:38;;;;;;;6.30;3.58;;;28.40;47.80;;;;;;5046698;28;20029;-72
2021/06/20 10:20:08;;;;;;;3.47;3.25;;;28.50;47.40;;;;;;5047317;28;20425;-72
2021/06/20 10:22:36;;;;;;;7.88;4.03;;;28.30;46.20;;;;;;5035300;28;20581;-73
2021/06/20 10:25:09;;;;;;;2.83;2.63;;;28.40;46.70;;;;;;5035429;28;20017;-72
2021/06/20 10:27:46;;;;;;;3.35;3.13;;;28.30;45.40;;;;;;5032893;28;20026;-72
2021/06/20 10:30:21;;;;;;;3.63;3.33;;;28.40;47.10;;;;;;5042163;28;20018;-72
2021/06/20 10:32:49;;;;;;;3.95;3.55;;;28.60;47.20;;;;;;5043045;28;20056;-72
2021/06/20 10:35:23;;;;;;;3.72;3.42;;;28.40;47.70;;;;;;5040637;28;20025;-73
2021/06/20 10:37:53;;;;;;;4.40;4.00;;;28.50;48.20;;;;;;5040337;28;20506;-73
2021/06/20 10:40:47;;;;;;;3.33;3.13;;;28.70;48.50;;;;;;5040692;28;20025;-72
2021/06/20 10:43:19;;;;;;;4.15;3.85;;;28.70;46.50;;;;;;5035281;28;20076;-72
2021/06/20 10:45:45;;;;;;;4.00;3.45;;;28.60;48.30;;;;;;5036602;28;20038;-72
2021/06/20 10:48:12;;;;;;;4.03;3.72;;;28.70;48.50;;;;;;5036027;28;20028;-73
2021/06/20 10:50:40;;;;;;;4.05;3.65;;;28.70;48.40;;;;;;5035845;28;20025;-72
2021/06/20 10:53:07;;;;;;;3.97;3.58;;;28.80;47.70;;;;;;5041744;28;20124;-73
2021/06/20 10:55:50;;;;;;;4.38;4.03;;;28.80;47.20;;;;;;5055912;28;20029;-72
2021/06/20 10:58:23;;;;;;;3.85;3.55;;;29.00;49.10;;;;;;5043897;28;20025;-72
2021/06/20 11:00:50;;;;;;;4.75;4.03;;;28.90;47.40;;;;;;5045382;28;20120;-72
2021/06/20 11:03:27;;;;;;;5.68;4.00;;;29.00;47.90;;;;;;5043504;28;20026;-72
2021/06/20 11:06:07;;;;;;;3.63;3.33;;;29.10;47.80;;;;;;5043536;28;20014;-72
2021/06/20 11:08:38;;;;;;;4.43;4.03;;;29.10;47.10;;;;;;5043568;28;20021;-73
2021/06/20 11:11:22;;;;;;;4.10;3.70;;;29.20;46.20;;;;;;5044438;28;20025;-72
2021/06/20 11:14:08;;;;;;;7.45;3.58;;;29.30;46.30;;;;;;5043894;28;20036;-72
2021/06/20 11:16:39;;;;;;;4.28;3.45;;;29.20;46.90;;;;;;5042383;28;20037;-72
2021/06/20 11:19:06;;;;;;;6.43;4.03;;;29.40;47.60;;;;;;5042811;28;20027;-72
2021/06/20 11:21:34;;;;;;;4.70;3.72;;;29.50;47.30;;;;;;5042222;28;20038;-72
2021/06/20 11:23:59;;;;;;;4.03;3.60;;;29.50;46.30;;;;;;5034569;28;20079;-72
2021/06/20 11:26:25;;;;;;;7.00;3.85;;;29.70;47.50;;;;;;5039652;28;20021;-74
2021/06/20 11:29:05;;;;;;;4.10;3.70;;;29.80;47.80;;;;;;5041818;28;20029;-73
2021/06/20 11:31:31;;;;;;;4.47;3.53;;;29.70;46.70;;;;;;5041785;28;20021;-73
2021/06/20 11:33:57;;;;;;;4.78;3.03;;;29.80;45.50;;;;;;5044182;28;20032;-72
2021/06/20 11:36:26;;;;;;;3.10;2.90;;;29.90;44.70;;;;;;5040644;28;20021;-73
2021/06/20 11:38:52;;;;;;;4.70;3.42;;;30.30;43.80;;;;;;5045105;28;20021;-73
2021/06/20 11:41:25;;;;;;;2.92;2.67;;;30.20;42.20;;;;;;5044685;28;20048;-72
2021/06/20 11:44:03;;;;;;;2.63;2.42;;;30.30;41.90;;;;;;5045180;28;20029;-73
2021/06/20 11:46:32;;;;;;;2.90;2.70;;;30.50;40.30;;;;;;5039292;28;20115;-72
2021/06/20 11:49:03;;;;;;;2.88;2.67;;;30.60;39.40;;;;;;5039882;28;20052;-72
2021/06/20 11:51:55;;;;;;;3.35;2.63;;;30.50;40.20;;;;;;5045261;28;20025;-72
2021/06/20 11:54:28;;;;;;;2.92;2.70;;;30.60;40.90;;;;;;5041074;28;20385;-72
2021/06/20 11:57:04;;;;;;;2.80;2.60;;;30.30;42.10;;;;;;5042730;28;20045;-73
2021/06/20 11:59:34;;;;;;;10.40;2.75;;;30.40;40.10;;;;;;5042228;28;20017;-72
2021/06/20 12:02:01;;;;;;;5.22;2.55;;;30.30;39.90;;;;;;5043499;28;20045;-73
2021/06/20 12:04:30;;;;;;;3.28;2.35;;;30.30;39.20;;;;;;5042650;28;20111;-72
2021/06/20 12:06:56;;;;;;;2.60;2.40;;;30.60;39.10;;;;;;5047305;28;20059;-72
2021/06/20 12:09:23;;;;;;;3.30;3.00;;;30.70;39.70;;;;;;5052486;28;20032;-72
2021/06/20 12:11:58;;;;;;;3.20;2.90;;;30.70;40.00;;;;;;5051739;28;20036;-73
2021/06/20 12:14:25;;;;;;;3.67;2.80;;;30.70;41.00;;;;;;5051106;28;20082;-73
2021/06/20 12:16:53;;;;;;;2.70;2.55;;;30.60;41.10;;;;;;5049618;28;20253;-73
2021/06/20 12:19:21;;;;;;;3.85;2.97;;;30.60;41.80;;;;;;5032533;28;20071;-72
2021/06/20 12:21:48;;;;;;;3.35;3.15;;;30.60;42.70;;;;;;5033603;28;20060;-73
2021/06/20 12:24:15;;;;;;;3.30;3.08;;;30.50;42.60;;;;;;5044810;28;20029;-73
2021/06/20 12:26:49;;;;;;;3.45;3.20;;;30.60;42.60;;;;;;5050756;28;20063;-73
2021/06/20 12:29:15;;;;;;;3.10;2.85;;;30.80;42.90;;;;;;5050449;28;20103;-72
2021/06/20 12:31:41;;;;;;;3.05;2.85;;;30.50;43.60;;;;;;5051698;28;20610;-73
2021/06/20 12:34:09;;;;;;;3.45;3.15;;;30.40;43.90;;;;;;5052193;28;20104;-72
2021/06/20 12:36:35;;;;;;;3.25;3.05;;;30.30;43.10;;;;;;5051855;28;20378;-73
2021/06/20 12:39:03;;;;;;;2.90;2.70;;;30.30;43.10;;;;;;5052969;28;20033;-72
2021/06/20 12:41:30;;;;;;;3.22;2.83;;;30.30;42.50;;;;;;5049266;28;20036;-73
2021/06/20 12:43:59;;;;;;;3.03;2.83;;;30.20;42.90;;;;;;5046637;28;20017;-71
2021/06/20 12:46:39;;;;;;;3.53;2.55;;;30.30;43.00;;;;;;5050466;28;20017;-72